Weather at Baton Rouge Metropolitan Airport

Public forecast

Using degrees Fahrenheit for public forecast. Weather courtesy of forecast.io.

Current aviation weather report (METAR) for Baton Rouge Metropolitan Airport

Retrieved 2020/11/25 03:53 UTC (36 minutes ago):

KBTR 250353Z AUTO 14007KT 10SM -RA BKN049 OVC060 21/18 A3004 RMK AO2 RAB34 SLP171 P0000 T02110178

Aviation forecast (TAF) for Baton Rouge Metropolitan Airport

Retrieved 2020-11-25 00:30 UTC (4 hours ago):

TAF KBTR 242329Z 2500/2524 12008KT P6SM BKN050 OVC060 FM250200 13010G18KT P6SM BKN080 FM250700 16009KT P6SM BKN060 FM251000 16009KT P6SM OVC020 FM251400 18009KT P6SM -SHRA BKN040 FM251600 19011G19KT P6SM -SHRA BKN060